Port Mansfield, Texas
Current Conditions -  °F | °C
As of 8:52 AM on Thursday 30 Oct 2014 (Local Time) from KHRL Reporting Station
Haze Haze  
Wind Chill: 71°   Ceiling: Unl
Heat Index: 71°   Visibility: 6mi
Dew Point: 69°   Wind: 5mph
Humidity: 93%   Direction: 40°NE
Pressure: 30.08"   Gusts: NA
Location:  26.56°N, 97.43°W
Report Text: KHRL 301352Z 04004KT 6SM BR CLR 22/21 A3008 RMK AO2 SLP186 T02170206
Loading
Personal Weather Stations






























Interactive Weather Map New forecast layout! Learn more

10-Day Weather Forecast

Advertisements
Track Severe Weather on mobile